Time;durP1;ratioP1;P1;durP2;ratioP2;P2;SDS_P1;SDS_P2;PMS_P1;PMS_P2;Temp;Humidity;BMP_temperature;BMP_pressure;BME280_temperature;BME280_humidity;BME280_pressure;Samples;Min_cycle;Max_cycle;Signal;HPM_P1;HPM_P2
2022/12/24 01:12:39;;;;;;;;;;;;;;;8.10;100.00;95775.31;4961169;28;19913;-93
2022/12/24 01:15:06;;;;;;;;;;;;;;;8.08;100.00;95778.09;4951557;28;19941;-92
2022/12/24 01:17:33;;;;;;;;;;;;;;;8.05;100.00;95778.41;4946503;29;19914;-93
2022/12/24 01:20:06;;;;;;;;;;;;;;;8.03;100.00;95782.97;4941001;28;20395;-93
2022/12/24 01:22:32;;;;;;;;;;;;;;;8.05;100.00;95804.59;4935125;29;20388;-92
2022/12/24 01:25:07;;;;;;;;;;;;;;;8.00;100.00;95801.59;4939249;29;19921;-93
2022/12/24 01:27:37;;;;;;;;;;;;;;;8.02;100.00;95794.44;4927018;29;19919;-93
2022/12/24 01:30:25;;;;;;;;;;;;;;;8.08;100.00;95788.59;4940136;28;20404;-93
2022/12/24 01:32:52;;;;;;;;;;;;;;;8.05;100.00;95794.13;4932377;28;20369;-93
2022/12/24 01:35:17;;;;;;;;;;;;;;;8.08;100.00;95812.16;4923346;29;19920;-93
2022/12/24 01:37:42;;;;;;;;;;;;;;;8.14;100.00;95811.50;4926631;28;19928;-93
2022/12/24 01:45:41;;;;;;;;;;;;;;;8.09;100.00;95832.13;4945787;28;19918;-92
2022/12/24 01:48:15;;;;;;;;;;;;;;;8.05;100.00;95836.03;4928571;28;19922;-93
2022/12/24 01:50:41;;;;;;;;;;;;;;;8.02;100.00;95838.94;4940144;28;20399;-92
2022/12/24 01:53:07;;;;;;;;;;;;;;;7.98;100.00;95840.22;4938259;28;19915;-92
2022/12/24 01:55:33;;;;;;;;;;;;;;;7.94;100.00;95844.94;4919880;29;20337;-92
2022/12/24 01:57:59;;;;;;;;;;;;;;;7.91;100.00;95847.03;4945170;28;20036;-92
2022/12/24 02:00:24;;;;;;;;;;;;;;;7.93;100.00;95861.63;4932044;28;19914;-92
2022/12/24 02:02:51;;;;;;;;;;;;;;;7.94;100.00;95859.81;4924664;28;19980;-92
2022/12/24 02:05:27;;;;;;;;;;;;;;;7.95;100.00;95870.16;4920403;29;19914;-91
2022/12/24 02:07:53;;;;;;;;;;;;;;;7.91;100.00;95870.59;4922114;28;19975;-90
2022/12/24 02:10:18;;;;;;;;;;;;;;;7.82;100.00;95871.53;4937087;29;19922;-90
2022/12/24 02:12:45;;;;;;;;;;;;;;;7.82;100.00;95869.72;4940429;28;19914;-90
2022/12/24 02:15:12;;;;;;;;;;;;;;;7.73;100.00;95887.13;4946291;29;20046;-90
2022/12/24 02:17:59;;;;;;;;;;;;;;;7.77;100.00;95880.63;4946576;28;20269;-89
2022/12/24 02:20:43;;;;;;;;;;;;;;;7.72;100.00;95898.59;4925237;29;19915;-90
2022/12/24 02:23:24;;;;;;;;;;;;;;;7.63;100.00;95894.25;4940198;28;19933;-89
2022/12/24 02:25:49;;;;;;;;;;;;;;;7.71;100.00;95893.50;4945638;28;20381;-90
2022/12/24 02:28:33;;;;;;;;;;;;;;;7.74;100.00;95898.44;4929040;29;19925;-91
2022/12/24 02:31:11;;;;;;;;;;;;;;;7.73;100.00;95897.59;4923094;29;19914;-91
2022/12/24 02:33:47;;;;;;;;;;;;;;;7.71;100.00;95889.09;4916628;29;19970;-92
2022/12/24 02:36:22;;;;;;;;;;;;;;;7.65;100.00;95894.13;4911405;29;20409;-92
2022/12/24 02:38:54;;;;;;;;;;;;;;;7.65;100.00;95884.47;4913271;29;20281;-91
2022/12/24 02:41:25;;;;;;;;;;;;;;;7.62;100.00;95892.59;4937011;29;20376;-88
2022/12/24 02:43:52;;;;;;;;;;;;;;;8.11;100.00;95905.28;4910341;29;19922;-88
2022/12/24 02:46:28;;;;;;;;;;;;;;;8.00;100.00;95916.81;4919497;29;19957;-92
2022/12/24 10:02:57;;;;;;;;;;;;;;;8.58;100.00;96267.50;4990243;23;19925;-91
2022/12/24 10:05:43;;;;;;;;;;;;;;;8.48;100.00;96264.13;4953638;28;19930;-91
2022/12/24 10:08:10;;;;;;;;;;;;;;;8.44;100.00;96254.91;4914874;29;20013;-90
2022/12/24 10:10:48;;;;;;;;;;;;;;;8.50;100.00;96256.94;4932677;28;19914;-89
2022/12/24 10:13:32;;;;;;;;;;;;;;;8.47;100.00;96255.44;4926372;28;20597;-88
2022/12/24 10:16:24;;;;;;;;;;;;;;;8.56;100.00;96260.78;4930978;28;19917;-88
2022/12/24 10:18:55;;;;;;;;;;;;;;;8.48;100.00;96264.13;4931775;29;19950;-87
2022/12/24 10:21:53;;;;;;;;;;;;;;;8.58;100.00;96254.41;4921575;29;19930;-88
2022/12/24 10:24:36;;;;;;;;;;;;;;;8.61;100.00;96263.78;4927157;29;19953;-88
2022/12/24 10:30:12;;;;;;;;;;;;;;;8.83;100.00;96247.66;4939992;28;19926;-90
2022/12/24 10:32:38;;;;;;;;;;;;;;;8.91;100.00;96255.59;4938745;28;19920;-89
2022/12/24 10:38:32;;;;;;;;;;;;;;;9.15;100.00;96241.06;4966435;28;20371;-88
2022/12/24 10:41:03;;;;;;;;;;;;;;;9.56;100.00;96237.00;4936035;28;19914;-89
2022/12/24 10:43:37;;;;;;;;;;;;;;;10.15;100.00;96232.75;4936775;28;19925;-89
2022/12/24 10:46:05;;;;;;;;;;;;;;;10.63;100.00;96230.56;4932625;28;20001;-89
2022/12/24 10:48:36;;;;;;;;;;;;;;;10.49;100.00;96216.19;4947762;28;20008;-88
2022/12/24 10:51:06;;;;;;;;;;;;;;;10.68;100.00;96203.75;4942892;28;19941;-88
2022/12/24 10:53:50;;;;;;;;;;;;;;;10.84;100.00;96206.44;4933348;28;20024;-88
2022/12/24 10:56:20;;;;;;;;;;;;;;;10.91;100.00;96212.69;4925539;28;19914;-88
2022/12/24 10:58:50;;;;;;;;;;;;;;;11.25;100.00;96212.56;4937843;29;19914;-88
2022/12/24 11:01:21;;;;;;;;;;;;;;;11.23;100.00;96211.91;4934080;29;19925;-89
2022/12/24 11:03:59;;;;;;;;;;;;;;;11.23;100.00;96201.38;4931928;28;19926;-88
2022/12/24 11:09:40;;;;;;;;;;;;;;;11.48;100.00;96207.47;4938801;29;19948;-89
2022/12/24 11:12:14;;;;;;;;;;;;;;;11.66;100.00;96209.09;4923336;29;19915;-88
2022/12/24 11:14:40;;;;;;;;;;;;;;;11.80;100.00;96200.50;4940263;29;19918;-89
2022/12/24 11:17:06;;;;;;;;;;;;;;;11.82;100.00;96206.44;4949423;28;19914;-89
2022/12/24 11:19:33;;;;;;;;;;;;;;;12.19;100.00;96197.97;4936124;29;20004;-89
2022/12/24 11:22:04;;;;;;;;;;;;;;;11.91;100.00;96204.66;4950406;28;19918;-90
2022/12/24 11:24:31;;;;;;;;;;;;;;;11.78;100.00;96205.13;4927813;28;19922;-89
2022/12/24 11:27:17;;;;;;;;;;;;;;;12.34;100.00;96194.59;4931707;28;19957;-90
2022/12/24 11:30:08;;;;;;;;;;;;;;;12.26;100.00;96195.47;4916185;28;19922;-90
2022/12/24 11:32:34;;;;;;;;;;;;;;;12.16;100.00;96194.84;4935718;29;19923;-90
2022/12/24 11:35:14;;;;;;;;;;;;;;;12.01;100.00;96202.66;4944041;28;19914;-89
2022/12/24 11:37:44;;;;;;;;;;;;;;;12.06;100.00;96194.22;4948934;28;19914;-90
2022/12/24 11:40:21;;;;;;;;;;;;;;;12.01;100.00;96198.19;4942491;28;19949;-89
2022/12/24 11:42:53;;;;;;;;;;;;;;;11.92;100.00;96195.75;4946911;28;19954;-90
2022/12/24 11:45:23;;;;;;;;;;;;;;;11.71;100.00;96199.72;4946251;28;19930;-89
2022/12/24 11:47:49;;;;;;;;;;;;;;;11.55;100.00;96210.25;4924263;29;19930;-89
2022/12/24 11:50:18;;;;;;;;;;;;;;;11.29;100.00;96210.41;4929524;29;19942;-90
2022/12/24 11:52:48;;;;;;;;;;;;;;;11.23;100.00;96211.91;4954594;28;19918;-90
2022/12/24 11:58:27;;;;;;;;;;;;;;;10.86;100.00;96220.22;4946298;29;19918;-89
2022/12/24 12:00:59;;;;;;;;;;;;;;;10.56;100.00;96219.00;4922942;29;19920;-89
2022/12/24 12:03:35;;;;;;;;;;;;;;;10.28;100.00;96229.72;4920641;29;20005;-89
2022/12/24 12:06:03;;;;;;;;;;;;;;;10.13;100.00;96241.81;4968251;28;19930;-89
2022/12/24 12:08:29;;;;;;;;;;;;;;;10.11;100.00;96244.56;4930225;29;19949;-90
2022/12/24 12:10:57;;;;;;;;;;;;;;;10.09;100.00;96248.31;4944690;28;19921;-90
2022/12/24 12:13:31;;;;;;;;;;;;;;;9.88;100.00;96238.19;4956326;28;19921;-89
2022/12/24 12:16:15;;;;;;;;;;;;;;;9.86;100.00;96237.53;4966294;28;19914;-90
2022/12/24 12:18:45;;;;;;;;;;;;;;;9.98;100.00;96231.03;4929633;29;20013;-90
2022/12/24 12:21:15;;;;;;;;;;;;;;;9.96;100.00;96233.00;4949859;29;20009;-90
2022/12/24 12:27:07;;;;;;;;;;;;;;;9.76;100.00;96234.16;4945339;29;20282;-90
2022/12/24 12:29:39;;;;;;;;;;;;;;;9.85;100.00;96230.63;4935802;29;19926;-90
2022/12/24 12:32:07;;;;;;;;;;;;;;;9.74;100.00;96223.00;4947378;28;20373;-90
2022/12/24 12:35:01;;;;;;;;;;;;;;;9.73;100.00;96226.63;4938262;29;19965;-90
2022/12/24 12:37:32;;;;;;;;;;;;;;;9.68;100.00;96230.50;4941832;28;19921;-90
2022/12/24 12:40:00;;;;;;;;;;;;;;;9.54;100.00;96244.19;4948851;28;19914;-89
2022/12/24 12:42:38;;;;;;;;;;;;;;;9.59;100.00;96244.56;4922819;29;20376;-90
2022/12/24 12:45:37;;;;;;;;;;;;;;;9.65;100.00;96245.75;4956867;28;20345;-90
2022/12/24 12:51:36;;;;;;;;;;;;;;;10.05;100.00;96257.50;4964068;28;20419;-90
2022/12/24 12:54:23;;;;;;;;;;;;;;;10.24;100.00;96249.41;4948258;28;20675;-89
2022/12/24 12:56:53;;;;;;;;;;;;;;;10.24;100.00;96253.84;4935451;29;20032;-90
2022/12/24 12:59:37;;;;;;;;;;;;;;;10.27;100.00;96256.19;4949966;29;19925;-90
2022/12/24 13:02:16;;;;;;;;;;;;;;;10.04;100.00;96263.75;4949242;28;19922;-90
2022/12/24 13:08:31;;;;;;;;;;;;;;;9.89;100.00;96280.09;4976495;29;19924;-91
2022/12/24 13:11:03;;;;;;;;;;;;;;;9.70;100.00;96271.56;4956324;29;19910;-91
2022/12/24 13:13:39;;;;;;;;;;;;;;;9.62;100.00;96278.41;4951605;29;19976;-91
2022/12/24 13:16:10;;;;;;;;;;;;;;;9.53;100.00;96276.69;4948327;28;19922;-90
2022/12/24 13:18:58;;;;;;;;;;;;;;;9.61;100.00;96287.25;4946921;28;19913;-93
2022/12/24 13:24:53;;;;;;;;;;;;;;;9.14;100.00;96294.53;4965456;29;19933;-92
2022/12/24 13:27:24;;;;;;;;;;;;;;;9.12;100.00;96296.47;4958252;28;19941;-92
2022/12/24 13:30:02;;;;;;;;;;;;;;;9.18;100.00;96294.06;4936804;28;19914;-91
2022/12/24 13:32:34;;;;;;;;;;;;;;;8.94;100.00;96299.88;4935620;29;19921;-91
2022/12/24 13:35:04;;;;;;;;;;;;;;;8.89;100.00;96303.94;4927338;28;19969;-92
2022/12/24 13:37:49;;;;;;;;;;;;;;;8.94;100.00;96313.00;4929034;29;19918;-91
2022/12/24 13:40:24;;;;;;;;;;;;;;;8.98;100.00;96316.16;4938963;29;19957;-90
2022/12/24 13:43:03;;;;;;;;;;;;;;;8.84;100.00;96314.84;4953405;28;19932;-91
2022/12/24 13:45:31;;;;;;;;;;;;;;;8.79;100.00;96313.66;4943162;29;19925;-91
2022/12/24 13:48:13;;;;;;;;;;;;;;;8.74;100.00;96314.91;4932083;28;19918;-91
2022/12/24 13:54:11;;;;;;;;;;;;;;;8.65;100.00;96315.81;4953906;28;19961;-91
2022/12/24 13:56:36;;;;;;;;;;;;;;;8.68;100.00;96310.22;4949023;29;19914;-91
2022/12/24 14:02:16;;;;;;;;;;;;;;;8.57;100.00;96318.31;4944510;28;20357;-91
2022/12/24 14:04:42;;;;;;;;;;;;;;;8.58;100.00;96322.56;4952156;29;19915;-91
2022/12/24 14:07:08;;;;;;;;;;;;;;;8.50;100.00;96325.91;4950690;28;19921;-92
2022/12/24 14:09:34;;;;;;;;;;;;;;;8.46;100.00;96334.22;4924761;29;19919;-91
2022/12/24 14:12:01;;;;;;;;;;;;;;;8.44;100.00;96333.53;4934979;29;19914;-92
2022/12/24 14:14:42;;;;;;;;;;;;;;;8.45;100.00;96324.69;4924947;29;19914;-96
2022/12/24 14:17:21;;;;;;;;;;;;;;;8.45;100.00;96325.53;4915289;29;19914;-91
2022/12/24 14:19:49;;;;;;;;;;;;;;;8.44;100.00;96318.63;4923202;29;19918;-91
2022/12/24 14:22:15;;;;;;;;;;;;;;;8.44;100.00;96318.63;4936685;28;19914;-91
2022/12/24 14:24:41;;;;;;;;;;;;;;;8.49;100.00;96321.66;4936453;28;19917;-92
2022/12/24 14:27:13;;;;;;;;;;;;;;;8.35;100.00;96314.22;4941078;28;19914;-92
2022/12/24 14:30:04;;;;;;;;;;;;;;;8.45;100.00;96309.81;4940333;29;19925;-92
2022/12/24 14:32:34;;;;;;;;;;;;;;;8.45;100.00;96301.94;4940289;29;19945;-92
2022/12/24 14:35:04;;;;;;;;;;;;;;;8.43;100.00;96309.13;4924184;28;19922;-92
2022/12/24 14:37:30;;;;;;;;;;;;;;;8.42;100.00;96307.47;4933620;29;20328;-92
2022/12/24 14:39:56;;;;;;;;;;;;;;;8.43;100.00;96298.63;4958040;28;19937;-92
2022/12/24 14:42:31;;;;;;;;;;;;;;;8.44;100.00;96308.13;4920821;29;19918;-92
2022/12/24 14:45:17;;;;;;;;;;;;;;;8.36;100.00;96294.91;4918087;29;19914;-92
2022/12/24 14:47:52;;;;;;;;;;;;;;;8.31;100.00;96301.53;4927318;29;20013;-91
2022/12/24 14:50:28;;;;;;;;;;;;;;;8.29;100.00;96301.69;4928629;29;19956;-91
2022/12/24 14:53:27;;;;;;;;;;;;;;;8.25;100.00;96301.16;4949177;28;19961;-92
2022/12/24 14:56:08;;;;;;;;;;;;;;;8.12;100.00;96313.75;4926659;29;20342;-91
2022/12/24 14:58:42;;;;;;;;;;;;;;;8.06;100.00;96311.69;4945758;29;19918;-92
2022/12/24 15:04:16;;;;;;;;;;;;;;;7.93;100.00;96319.03;4940517;29;19918;-91
2022/12/24 15:06:49;;;;;;;;;;;;;;;7.87;100.00;96320.41;4922291;29;20393;-92
2022/12/24 15:09:19;;;;;;;;;;;;;;;7.78;100.00;96316.84;4937480;28;19917;-92
2022/12/24 15:11:45;;;;;;;;;;;;;;;7.73;100.00;96324.28;4935244;28;19930;-91
2022/12/24 15:14:27;;;;;;;;;;;;;;;7.75;100.00;96322.34;4941334;28;19914;-92
2022/12/24 15:17:21;;;;;;;;;;;;;;;7.64;100.00;96309.41;4928916;29;20365;-92
2022/12/24 15:19:49;;;;;;;;;;;;;;;7.59;100.00;96319.47;4933948;29;19914;-88
2022/12/24 15:22:30;;;;;;;;;;;;;;;7.65;100.00;96328.56;4957480;29;19922;-92
2022/12/24 15:24:55;;;;;;;;;;;;;;;7.53;100.00;96338.34;4942384;29;19914;-90
2022/12/24 15:27:31;;;;;;;;;;;;;;;7.48;100.00;96328.31;4935450;29;20021;-91
2022/12/24 15:29:57;;;;;;;;;;;;;;;7.42;100.00;96341.09;4966627;28;19905;-91
2022/12/24 15:32:33;;;;;;;;;;;;;;;7.35;100.00;96335.59;4959050;29;19917;-91
2022/12/24 15:34:59;;;;;;;;;;;;;;;7.31;100.00;96348.13;4916720;28;19919;-91
2022/12/24 15:37:26;;;;;;;;;;;;;;;7.36;100.00;96346.88;4930447;29;19922;-90
2022/12/24 15:39:56;;;;;;;;;;;;;;;7.29;100.00;96355.25;4951896;28;19914;-89
2022/12/24 15:42:22;;;;;;;;;;;;;;;7.28;100.00;96351.00;4922369;29;19919;-89
2022/12/24 15:44:57;;;;;;;;;;;;;;;7.26;100.00;96349.47;4933586;28;19914;-88
2022/12/24 15:47:28;;;;;;;;;;;;;;;7.23;100.00;96352.38;4918770;29;19922;-88
2022/12/24 15:49:53;;;;;;;;;;;;;;;7.19;100.00;96354.44;4934192;28;19922;-87
2022/12/24 15:52:23;;;;;;;;;;;;;;;7.14;100.00;96355.78;4918261;29;19914;-89
2022/12/24 15:58:37;;;;;;;;;;;;;;;7.16;100.00;96362.53;4885566;29;20408;-91
2022/12/24 16:01:41;;;;;;;;;;;;;;;7.12;100.00;96355.94;4938946;29;19962;-89
2022/12/24 16:04:14;;;;;;;;;;;;;;;7.03;100.00;96357.56;4945107;28;19949;-88
2022/12/24 16:07:03;;;;;;;;;;;;;;;7.00;100.00;96359.59;4916849;29;19921;-89
2022/12/24 16:09:35;;;;;;;;;;;;;;;6.95;100.00;96364.44;4935517;29;19937;-87
2022/12/24 16:12:01;;;;;;;;;;;;;;;6.95;100.00;96369.66;4924328;28;19918;-89
2022/12/24 16:14:27;;;;;;;;;;;;;;;6.99;100.00;96377.09;4947271;29;19919;-87
2022/12/24 16:16:55;;;;;;;;;;;;;;;6.93;100.00;96388.06;4906701;29;21567;-90
2022/12/24 16:19:26;;;;;;;;;;;;;;;6.94;100.00;96383.66;4935864;29;19969;-90
2022/12/24 16:21:56;;;;;;;;;;;;;;;6.97;100.00;96389.47;4910748;29;19922;-88
2022/12/24 16:24:29;;;;;;;;;;;;;;;7.00;100.00;96383.97;4932523;28;19914;-88
2022/12/24 16:26:56;;;;;;;;;;;;;;;7.02;100.00;96376.00;4939307;28;19915;-87
2022/12/24 16:29:22;;;;;;;;;;;;;;;7.01;100.00;96375.19;4924321;28;20296;-84
2022/12/24 16:31:55;;;;;;;;;;;;;;;7.03;100.00;96375.03;4934829;29;19969;-85
2022/12/24 16:34:27;;;;;;;;;;;;;;;7.04;100.00;96377.53;4926747;29;19915;-84
2022/12/24 16:36:53;;;;;;;;;;;;;;;7.01;100.00;96375.19;4934346;28;19917;-84
2022/12/24 16:39:23;;;;;;;;;;;;;;;7.01;100.00;96372.56;4917249;29;20012;-84
2022/12/24 16:44:37;;;;;;;;;;;;;;;7.03;100.00;96375.03;4935190;29;20356;-85
2022/12/24 16:47:14;;;;;;;;;;;;;;;7.01;100.00;96376.97;4935085;28;19914;-83
2022/12/24 16:49:40;;;;;;;;;;;;;;;6.95;100.00;96372.28;4917245;29;19957;-88
2022/12/24 16:52:27;;;;;;;;;;;;;;;6.85;100.00;96369.63;4939998;29;19920;-85
2022/12/24 16:55:00;;;;;;;;;;;;;;;6.83;100.00;96385.44;4934226;29;19925;-84
2022/12/24 16:57:31;;;;;;;;;;;;;;;6.81;100.00;96389.97;4927917;29;20002;-81
2022/12/24 16:59:58;;;;;;;;;;;;;;;6.85;100.00;96396.59;4917004;28;20005;-84
2022/12/24 17:02:24;;;;;;;;;;;;;;;6.84;100.00;96388.88;4927093;29;19914;-86
2022/12/24 17:04:49;;;;;;;;;;;;;;;6.92;100.00;96380.38;4922709;29;19914;-84
2022/12/24 17:07:16;;;;;;;;;;;;;;;6.89;100.00;96380.63;4928445;28;19911;-83
2022/12/24 17:09:44;;;;;;;;;;;;;;;6.90;100.00;96382.28;4932243;29;19914;-86
2022/12/24 17:12:10;;;;;;;;;;;;;;;6.89;100.00;96389.31;4934223;28;19910;-85
2022/12/24 17:14:37;;;;;;;;;;;;;;;6.90;100.00;96392.75;4924059;29;19957;-83
2022/12/24 17:17:19;;;;;;;;;;;;;;;6.95;100.00;96386.16;4953014;28;20485;-85
2022/12/24 17:19:44;;;;;;;;;;;;;;;6.97;100.00;96389.47;4919425;29;19964;-86
2022/12/24 17:22:18;;;;;;;;;;;;;;;6.99;100.00;96397.19;4926217;28;19915;-83
2022/12/24 17:24:46;;;;;;;;;;;;;;;7.00;100.00;96412.72;4926007;29;19915;-86
2022/12/24 17:27:12;;;;;;;;;;;;;;;7.07;100.00;96419.06;4923103;28;19918;-82
2022/12/24 17:29:38;;;;;;;;;;;;;;;7.09;100.00;96417.16;4926726;28;19957;-83
2022/12/24 17:32:04;;;;;;;;;;;;;;;7.12;100.00;96408.22;4923724;28;19925;-82
2022/12/24 17:34:29;;;;;;;;;;;;;;;7.09;100.00;96408.50;4918132;29;19922;-83
2022/12/24 17:36:55;;;;;;;;;;;;;;;7.05;100.00;96414.97;4915619;28;20712;-82
2022/12/24 17:39:20;;;;;;;;;;;;;;;6.96;100.00;96407.91;4925434;29;19915;-82
2022/12/24 17:41:46;;;;;;;;;;;;;;;6.90;100.00;96413.66;4944461;29;19914;-82
2022/12/24 17:44:19;;;;;;;;;;;;;;;6.85;100.00;96409.66;4935327;29;19918;-82
2022/12/24 17:46:45;;;;;;;;;;;;;;;6.84;100.00;96405.41;4916615;29;20305;-82
2022/12/24 17:49:11;;;;;;;;;;;;;;;6.75;100.00;96411.41;4921284;28;19925;-82
2022/12/24 17:51:37;;;;;;;;;;;;;;;6.71;100.00;96407.41;4941575;29;19950;-82
2022/12/24 17:54:02;;;;;;;;;;;;;;;6.79;100.00;96407.56;4927239;28;19914;-82
2022/12/24 17:56:28;;;;;;;;;;;;;;;6.86;100.00;96405.25;4931840;29;19922;-82
2022/12/24 17:58:53;;;;;;;;;;;;;;;6.92;100.00;96402.13;4920602;29;19918;-82
2022/12/24 18:01:24;;;;;;;;;;;;;;;6.98;100.00;96406.00;4932767;28;20356;-82
2022/12/24 18:03:50;;;;;;;;;;;;;;;7.05;100.00;96401.88;4926721;29;20389;-81
2022/12/24 18:06:16;;;;;;;;;;;;;;;7.12;100.00;96408.22;4923261;28;20364;-82
2022/12/24 18:08:44;;;;;;;;;;;;;;;7.16;100.00;96412.22;4937958;29;19922;-82
2022/12/24 18:11:13;;;;;;;;;;;;;;;7.15;100.00;96412.38;4936634;28;19941;-82
2022/12/24 18:13:40;;;;;;;;;;;;;;;7.14;100.00;96421.16;4915372;29;20385;-82
2022/12/24 18:16:32;;;;;;;;;;;;;;;7.09;100.00;96425.00;4929066;28;19915;-81
2022/12/24 18:18:58;;;;;;;;;;;;;;;7.14;100.00;96429.84;4959218;28;19918;-81
2022/12/24 18:21:25;;;;;;;;;;;;;;;7.16;100.00;96441.00;4937380;29;19914;-83
2022/12/24 18:23:51;;;;;;;;;;;;;;;7.12;100.00;96437.00;4924726;29;20653;-82
2022/12/24 18:26:17;;;;;;;;;;;;;;;7.12;100.00;96434.38;4919258;29;20377;-82
2022/12/24 18:28:42;;;;;;;;;;;;;;;7.12;100.00;96433.56;4916263;29;20410;-82
2022/12/24 18:31:11;;;;;;;;;;;;;;;7.19;100.00;96439.91;4936794;28;19922;-82
2022/12/24 18:33:37;;;;;;;;;;;;;;;7.24;100.00;96428.09;4936290;29;20373;-82
2022/12/24 18:36:03;;;;;;;;;;;;;;;7.23;100.00;96429.03;4928811;28;19914;-82
2022/12/24 18:38:29;;;;;;;;;;;;;;;7.24;100.00;96428.09;4953955;28;19915;-82
2022/12/24 18:40:54;;;;;;;;;;;;;;;7.24;100.00;96430.72;4937053;28;19925;-81
2022/12/24 18:43:20;;;;;;;;;;;;;;;7.24;100.00;96429.88;4924982;29;19914;-82
2022/12/24 18:45:46;;;;;;;;;;;;;;;7.24;100.00;96424.63;4944366;29;19957;-82
2022/12/24 18:48:12;;;;;;;;;;;;;;;7.22;100.00;96410.88;4921739;28;20285;-82
2022/12/24 18:50:39;;;;;;;;;;;;;;;7.19;100.00;96419.81;4927656;28;19914;-83
2022/12/24 18:53:06;;;;;;;;;;;;;;;7.19;100.00;96411.16;4934689;28;20335;-83
2022/12/24 18:55:35;;;;;;;;;;;;;;;7.19;100.00;96411.16;4951357;28;19961;-83
2022/12/24 18:58:01;;;;;;;;;;;;;;;7.19;100.00;96419.00;4938501;28;19918;-84
2022/12/24 19:00:28;;;;;;;;;;;;;;;7.12;100.00;96413.47;4921891;28;20016;-83
2022/12/24 19:02:53;;;;;;;;;;;;;;;7.09;100.00;96414.56;4930374;29;19953;-83
2022/12/24 19:05:19;;;;;;;;;;;;;;;7.12;100.00;96417.88;4938287;29;19919;-83
2022/12/24 19:07:44;;;;;;;;;;;;;;;7.08;100.00;96422.53;4942692;29;19919;-83
2022/12/24 19:10:10;;;;;;;;;;;;;;;7.14;100.00;96408.91;4959155;28;20357;-83
2022/12/24 19:12:36;;;;;;;;;;;;;;;7.05;100.00;96413.16;4924564;29;19919;-83
2022/12/24 19:15:09;;;;;;;;;;;;;;;7.04;100.00;96421.97;4948830;28;20262;-83
2022/12/24 19:17:34;;;;;;;;;;;;;;;7.04;100.00;96423.75;4937368;28;19918;-83
2022/12/24 19:20:00;;;;;;;;;;;;;;;7.05;100.00;96428.03;4943184;28;20015;-84
2022/12/24 19:22:26;;;;;;;;;;;;;;;7.03;100.00;96422.09;4932428;28;20008;-83
2022/12/24 19:24:52;;;;;;;;;;;;;;;7.02;100.00;96423.91;4943273;29;19918;-83
2022/12/24 19:27:18;;;;;;;;;;;;;;;7.03;100.00;96425.53;4926667;29;19918;-83
2022/12/24 19:29:51;;;;;;;;;;;;;;;7.02;100.00;96429.13;4937646;29;19915;-83
2022/12/24 19:32:17;;;;;;;;;;;;;;;7.03;100.00;96427.31;4925786;28;19920;-83
2022/12/24 19:34:48;;;;;;;;;;;;;;;7.03;100.00;96430.75;4933827;29;19993;-83
2022/12/24 19:37:13;;;;;;;;;;;;;;;7.01;100.00;96431.88;4932809;28;19966;-83
2022/12/24 19:39:40;;;;;;;;;;;;;;;6.99;100.00;96437.22;4916240;28;19918;-83
2022/12/24 19:42:06;;;;;;;;;;;;;;;6.99;100.00;96429.38;4930367;28;20668;-83
2022/12/24 19:44:32;;;;;;;;;;;;;;;6.96;100.00;96431.44;4913378;29;20360;-84
2022/12/24 19:46:57;;;;;;;;;;;;;;;6.97;100.00;96420.00;4937137;28;19919;-83
2022/12/24 19:49:23;;;;;;;;;;;;;;;6.95;100.00;96425.38;4925620;28;19961;-83
2022/12/24 19:51:48;;;;;;;;;;;;;;;6.95;100.00;96432.41;4948135;28;19964;-83
2022/12/24 19:54:14;;;;;;;;;;;;;;;6.99;100.00;96433.78;4928773;28;19921;-83
2022/12/24 19:56:39;;;;;;;;;;;;;;;7.04;100.00;96448.13;4962089;28;19925;-83
2022/12/24 19:59:05;;;;;;;;;;;;;;;7.13;100.00;96441.25;4919220;28;19922;-82
2022/12/24 20:01:32;;;;;;;;;;;;;;;7.18;100.00;96448.72;4924140;29;20377;-83
2022/12/24 20:03:58;;;;;;;;;;;;;;;7.14;100.00;96448.13;4918437;28;19914;-83
2022/12/24 20:06:25;;;;;;;;;;;;;;;7.15;100.00;96441.97;4932956;29;19997;-84
2022/12/24 20:08:51;;;;;;;;;;;;;;;7.13;100.00;96443.88;4942600;29;19929;-83
2022/12/24 20:11:19;;;;;;;;;;;;;;;7.12;100.00;96450.06;4923213;28;19914;-84
2022/12/24 20:13:58;;;;;;;;;;;;;;;7.14;100.00;96447.31;4923171;29;19952;-83
2022/12/24 20:16:24;;;;;;;;;;;;;;;7.15;100.00;96454.22;4929070;28;19917;-83
2022/12/24 20:18:53;;;;;;;;;;;;;;;7.14;100.00;96453.38;4939579;29;20013;-84
2022/12/24 20:21:19;;;;;;;;;;;;;;;7.12;100.00;96459.72;4927187;28;19923;-84
2022/12/24 20:23:47;;;;;;;;;;;;;;;7.10;100.00;96462.44;4936461;28;19922;-84
2022/12/24 20:26:15;;;;;;;;;;;;;;;7.14;100.00;96466.44;4935358;29;20001;-84
2022/12/24 20:28:40;;;;;;;;;;;;;;;7.16;100.00;96467.16;4916312;29;20065;-84
2022/12/24 20:31:11;;;;;;;;;;;;;;;7.16;100.00;96466.34;4921854;28;19914;-83
2022/12/24 20:33:39;;;;;;;;;;;;;;;7.15;100.00;96477.75;4929760;29;20005;-84
2022/12/24 20:36:05;;;;;;;;;;;;;;;7.08;100.00;96480.06;4929581;28;19918;-83
2022/12/24 20:38:32;;;;;;;;;;;;;;;7.04;100.00;96476.91;4928302;29;19910;-84
2022/12/24 20:40:58;;;;;;;;;;;;;;;7.10;100.00;96475.53;4919218;28;19919;-83
2022/12/24 20:43:28;;;;;;;;;;;;;;;7.07;100.00;96483.63;4919890;29;19941;-83
2022/12/24 20:45:54;;;;;;;;;;;;;;;7.08;100.00;96477.47;4922216;29;19918;-84
2022/12/24 20:48:25;;;;;;;;;;;;;;;7.07;100.00;96478.41;4931162;28;19977;-84
2022/12/24 20:50:50;;;;;;;;;;;;;;;7.09;100.00;96471.25;4930089;28;19918;-84
2022/12/24 20:53:17;;;;;;;;;;;;;;;7.07;100.00;96473.16;4923590;28;19981;-84
2022/12/24 20:55:47;;;;;;;;;;;;;;;7.03;100.00;96472.59;4929652;29;19914;-84
2022/12/24 20:58:12;;;;;;;;;;;;;;;6.97;100.00;96472.31;4937482;28;19926;-84
2022/12/24 21:00:38;;;;;;;;;;;;;;;6.93;100.00;96471.75;4915110;29;19918;-84
2022/12/24 21:03:17;;;;;;;;;;;;;;;6.92;100.00;96477.94;4913345;28;19969;-84
2022/12/24 21:05:55;;;;;;;;;;;;;;;6.94;100.00;96483.00;4920768;28;19918;-84
2022/12/24 21:08:24;;;;;;;;;;;;;;;6.95;100.00;96489.94;4935029;29;19919;-84
2022/12/24 21:12:47;;;;;;;;;;;;;;;6.90;100.00;96482.44;4928915;29;20333;-84
2022/12/24 21:13:45;;;;;;;;;;;;;;;6.87;100.00;96484.50;4932296;29;19919;-84
2022/12/24 21:16:16;;;;;;;;;;;;;;;6.91;100.00;96481.50;4956498;28;19964;-84
2022/12/24 21:18:50;;;;;;;;;;;;;;;6.95;100.00;96480.28;4939600;29;19994;-83
2022/12/24 21:21:36;;;;;;;;;;;;;;;6.92;100.00;96474.50;4918248;29;19918;-83
2022/12/24 21:24:25;;;;;;;;;;;;;;;6.88;100.00;96478.34;4940539;28;19918;-83
2022/12/24 21:26:54;;;;;;;;;;;;;;;6.87;100.00;96476.66;4920938;29;20042;-83
2022/12/24 21:29:36;;;;;;;;;;;;;;;6.90;100.00;96484.25;4919731;28;20376;-85
2022/12/24 21:32:02;;;;;;;;;;;;;;;6.89;100.00;96485.22;4935344;28;20546;-82
2022/12/24 21:34:34;;;;;;;;;;;;;;;6.96;100.00;96491.56;4938081;28;19945;-82
2022/12/24 21:37:00;;;;;;;;;;;;;;;6.93;100.00;96490.03;4937245;28;19969;-82
2022/12/24 21:39:25;;;;;;;;;;;;;;;6.88;100.00;96487.00;4921642;29;19957;-82
2022/12/24 21:41:51;;;;;;;;;;;;;;;6.81;100.00;96481.47;4944534;28;19910;-82
2022/12/24 21:44:17;;;;;;;;;;;;;;;6.84;100.00;96485.59;4932374;28;19922;-82
2022/12/24 21:46:51;;;;;;;;;;;;;;;6.79;100.00;96490.38;4929745;29;20013;-82
2022/12/24 21:52:02;;;;;;;;;;;;;;;6.76;100.00;96501.09;4930385;28;19915;-82
2022/12/24 21:54:31;;;;;;;;;;;;;;;6.77;100.00;96505.34;4916125;29;19914;-83
2022/12/24 22:00:20;;;;;;;;;;;;;;;6.78;100.00;96513.09;4946822;28;19913;-81
2022/12/24 22:02:46;;;;;;;;;;;;;;;6.80;100.00;96523.41;4940867;28;20017;-82
2022/12/24 22:05:12;;;;;;;;;;;;;;;6.84;100.00;96525.66;4928650;28;19949;-82
2022/12/24 22:13:20;;;;;;;;;;;;;;;6.90;100.00;96531.31;4931363;28;20054;-82
2022/12/24 22:15:47;;;;;;;;;;;;;;;6.92;100.00;96517.16;4930129;28;20045;-82
2022/12/24 22:18:28;;;;;;;;;;;;;;;6.98;100.00;96510.59;4908871;28;19926;-83
2022/12/24 22:20:55;;;;;;;;;;;;;;;6.99;100.00;96499.16;4914594;29;19926;-83
2022/12/24 22:23:38;;;;;;;;;;;;;;;6.95;100.00;96495.16;4918382;28;19918;-83
2022/12/24 22:26:30;;;;;;;;;;;;;;;6.97;100.00;96490.59;4956201;28;19938;-83
2022/12/24 22:28:56;;;;;;;;;;;;;;;6.96;100.00;96491.56;4918931;29;19989;-83
2022/12/24 22:31:23;;;;;;;;;;;;;;;6.95;100.00;96492.53;4919538;28;20302;-83